Time;durP1;ratioP1;P1;durP2;ratioP2;P2;SDS_P1;SDS_P2;PMS_P1;PMS_P2;Temp;Humidity;BMP_temperature;BMP_pressure;BME280_temperature;BME280_humidity;BME280_pressure;Samples;Min_cycle;Max_cycle;Signal;HPM_P1;HPM_P2
2022/02/27 00:00:13;;;;;;;13.93;5.60;;;11.10;99.90;;;;;;5075526;28;20287;-66
2022/02/27 00:02:40;;;;;;;13.70;5.93;;;11.00;99.90;;;;;;5085457;28;20209;-66
2022/02/27 00:05:07;;;;;;;10.43;5.40;;;11.00;99.90;;;;;;5088876;28;20231;-66
2022/02/27 00:07:33;;;;;;;9.37;5.40;;;10.90;99.90;;;;;;5090389;28;20193;-66
2022/02/27 00:10:00;;;;;;;10.40;5.77;;;10.90;99.90;;;;;;5086018;28;20673;-65
2022/02/27 00:12:26;;;;;;;10.47;5.30;;;10.80;99.90;;;;;;5096378;28;20526;-65
2022/02/27 00:14:53;;;;;;;8.33;5.17;;;10.80;99.90;;;;;;5084346;28;20754;-65
2022/02/27 00:17:19;;;;;;;8.33;5.10;;;10.70;99.90;;;;;;5090505;28;20190;-66
2022/02/27 00:19:45;;;;;;;11.50;5.87;;;10.70;99.90;;;;;;5090446;28;20653;-65
2022/02/27 00:22:11;;;;;;;8.63;5.23;;;10.60;99.90;;;;;;5087659;28;20186;-66
2022/02/27 00:24:38;;;;;;;13.03;6.17;;;10.60;99.90;;;;;;5083092;28;20582;-66
2022/02/27 00:27:05;;;;;;;10.67;6.03;;;10.60;99.90;;;;;;5089483;28;20190;-66
2022/02/27 00:29:31;;;;;;;7.10;5.37;;;10.50;99.90;;;;;;5088996;28;20220;-65
2022/02/27 00:31:58;;;;;;;8.50;5.40;;;10.50;99.90;;;;;;5089985;28;20322;-65
2022/02/27 00:34:24;;;;;;;10.23;6.10;;;10.50;99.90;;;;;;5088038;28;20689;-66
2022/02/27 00:36:52;;;;;;;14.47;6.27;;;10.50;99.90;;;;;;5090060;28;20182;-65
2022/02/27 00:39:18;;;;;;;9.23;5.57;;;10.50;99.90;;;;;;5089087;28;20244;-65
2022/02/27 00:41:45;;;;;;;10.60;5.93;;;10.40;99.90;;;;;;5089496;28;20181;-66
2022/02/27 00:44:11;;;;;;;10.90;6.87;;;10.50;99.90;;;;;;5088193;28;20201;-66
2022/02/27 00:46:37;;;;;;;7.43;5.60;;;10.50;99.90;;;;;;5089644;28;20213;-65
2022/02/27 00:49:04;;;;;;;11.03;6.40;;;10.40;99.90;;;;;;5090208;28;20196;-65
2022/02/27 00:51:31;;;;;;;8.97;6.37;;;10.40;99.90;;;;;;5088500;28;20282;-65
2022/02/27 00:53:58;;;;;;;10.60;6.10;;;10.40;99.90;;;;;;5085259;28;20206;-65
2022/02/27 00:56:24;;;;;;;9.50;6.47;;;10.40;99.90;;;;;;5083078;28;20817;-65
2022/02/27 00:58:51;;;;;;;11.60;6.43;;;10.40;99.90;;;;;;5088304;28;20274;-65
2022/02/27 01:01:20;;;;;;;9.27;5.90;;;10.40;99.90;;;;;;5088640;28;20658;-65
2022/02/27 01:03:47;;;;;;;13.50;5.43;;;10.40;99.90;;;;;;5082648;28;20197;-65
2022/02/27 01:06:14;;;;;;;13.00;6.17;;;10.40;99.90;;;;;;5083754;28;20207;-66
2022/02/27 01:08:40;;;;;;;8.17;5.57;;;10.40;99.90;;;;;;5067675;28;20248;-65
2022/02/27 01:11:06;;;;;;;9.37;5.30;;;10.40;99.90;;;;;;5077455;28;20263;-65
2022/02/27 01:13:33;;;;;;;15.10;6.33;;;10.30;99.90;;;;;;5084522;28;20288;-66
2022/02/27 01:15:59;;;;;;;8.47;5.37;;;10.30;99.90;;;;;;5086826;28;20190;-65
2022/02/27 01:18:25;;;;;;;7.30;5.07;;;10.30;99.90;;;;;;5089430;28;20550;-65
2022/02/27 01:20:52;;;;;;;9.57;5.70;;;10.20;99.90;;;;;;5088538;28;20261;-65
2022/02/27 01:23:19;;;;;;;8.97;5.60;;;10.20;99.90;;;;;;5063616;28;20182;-65
2022/02/27 01:25:45;;;;;;;7.83;5.67;;;10.20;99.90;;;;;;5079164;28;20209;-65
2022/02/27 01:28:12;;;;;;;9.80;4.90;;;10.10;99.90;;;;;;5087878;28;20194;-65
2022/02/27 01:30:38;;;;;;;10.80;5.67;;;10.10;99.90;;;;;;5087725;28;20182;-65
2022/02/27 01:33:05;;;;;;;10.13;5.60;;;10.10;99.90;;;;;;5088847;28;20182;-65
2022/02/27 01:35:31;;;;;;;10.87;5.63;;;10.10;99.90;;;;;;5086795;28;20305;-65
2022/02/27 01:37:57;;;;;;;10.60;5.73;;;10.00;99.90;;;;;;5088382;28;20198;-66
2022/02/27 01:40:24;;;;;;;11.03;5.97;;;10.00;99.90;;;;;;5078307;28;20527;-66
2022/02/27 01:42:51;;;;;;;9.93;5.73;;;10.00;99.90;;;;;;5085411;28;20590;-65
2022/02/27 01:45:18;;;;;;;8.97;5.83;;;10.00;99.90;;;;;;5088273;28;20197;-65
2022/02/27 01:47:44;;;;;;;10.60;5.63;;;10.00;99.90;;;;;;5087441;28;20286;-65
2022/02/27 01:50:10;;;;;;;11.23;5.83;;;10.00;99.90;;;;;;5087771;28;20197;-66
2022/02/27 01:52:37;;;;;;;9.07;4.97;;;10.00;99.90;;;;;;5089093;28;20186;-66
2022/02/27 01:55:05;;;;;;;7.70;4.83;;;9.90;99.90;;;;;;5083389;28;20967;-65
2022/02/27 01:57:32;;;;;;;9.83;5.13;;;9.90;99.90;;;;;;5084295;28;20205;-65
2022/02/27 01:59:59;;;;;;;14.17;5.73;;;9.90;99.90;;;;;;5086970;28;20201;-66
2022/02/27 02:02:25;;;;;;;8.23;5.40;;;9.90;99.90;;;;;;5083533;28;20191;-66
2022/02/27 02:04:51;;;;;;;9.90;5.57;;;9.90;99.90;;;;;;5084376;28;20653;-65
2022/02/27 02:07:17;;;;;;;10.27;5.33;;;9.90;99.90;;;;;;5088475;28;20278;-65
2022/02/27 02:09:44;;;;;;;7.13;4.77;;;9.80;99.90;;;;;;5087152;28;20186;-65
2022/02/27 02:12:12;;;;;;;14.50;5.00;;;9.80;99.90;;;;;;5086780;28;20198;-66
2022/02/27 02:14:38;;;;;;;10.93;5.23;;;9.70;99.90;;;;;;5087669;28;20267;-66
2022/02/27 02:17:05;;;;;;;7.17;4.97;;;9.70;99.90;;;;;;5088152;28;20293;-65
2022/02/27 02:19:32;;;;;;;8.43;4.93;;;9.70;99.90;;;;;;5066518;28;20186;-65
2022/02/27 02:22:02;;;;;;;9.63;5.00;;;9.60;99.90;;;;;;5066888;28;20515;-65
2022/02/27 02:24:28;;;;;;;5.43;4.33;;;9.60;99.90;;;;;;5083660;28;20183;-65
2022/02/27 02:26:55;;;;;;;7.90;4.50;;;9.50;99.90;;;;;;5073471;28;20201;-65
2022/02/27 02:29:24;;;;;;;7.07;4.33;;;9.50;99.90;;;;;;5086081;28;20190;-65
2022/02/27 02:31:53;;;;;;;9.60;4.70;;;9.40;99.90;;;;;;5086944;28;20265;-66
2022/02/27 02:34:22;;;;;;;6.60;4.10;;;9.40;99.90;;;;;;5087207;28;20314;-65
2022/02/27 02:36:50;;;;;;;9.17;4.60;;;9.40;99.90;;;;;;5087246;28;20191;-65
2022/02/27 02:39:20;;;;;;;9.10;4.40;;;9.40;99.90;;;;;;5088672;28;20188;-65
2022/02/27 02:41:47;;;;;;;7.40;4.43;;;9.40;99.90;;;;;;5088291;28;20261;-65
2022/02/27 02:44:14;;;;;;;6.07;4.30;;;9.40;99.90;;;;;;5078367;28;20592;-66
2022/02/27 02:46:41;;;;;;;10.90;4.73;;;9.40;99.90;;;;;;5079712;28;20197;-66
2022/02/27 02:49:11;;;;;;;9.17;4.40;;;9.40;99.90;;;;;;5067081;28;20197;-66
2022/02/27 02:51:38;;;;;;;9.83;4.83;;;9.40;99.90;;;;;;5075753;28;20209;-65
2022/02/27 02:54:07;;;;;;;9.90;4.83;;;9.40;99.90;;;;;;5068276;28;20532;-65
2022/02/27 02:56:34;;;;;;;9.97;5.00;;;9.50;99.90;;;;;;5066583;28;20198;-66
2022/02/27 02:59:02;;;;;;;8.77;4.87;;;9.40;99.90;;;;;;5079100;28;20190;-66
2022/02/27 03:01:29;;;;;;;8.23;4.73;;;9.40;99.90;;;;;;5086529;28;20190;-65
2022/02/27 03:03:56;;;;;;;7.17;4.50;;;9.50;99.90;;;;;;5085504;28;20265;-65
2022/02/27 03:06:25;;;;;;;8.67;4.53;;;9.50;99.90;;;;;;5069800;28;20207;-64
2022/02/27 03:08:52;;;;;;;6.80;4.43;;;9.50;99.90;;;;;;5085235;28;20218;-66
2022/02/27 03:11:20;;;;;;;10.77;4.40;;;9.40;99.90;;;;;;5075922;28;20201;-65
2022/02/27 03:13:47;;;;;;;9.77;4.87;;;9.50;99.90;;;;;;5074195;28;20214;-65
2022/02/27 03:16:14;;;;;;;7.30;4.43;;;9.50;99.90;;;;;;5090807;28;20263;-66
2022/02/27 03:18:41;;;;;;;10.80;5.13;;;9.50;99.90;;;;;;5075818;28;20190;-66
2022/02/27 03:21:08;;;;;;;4.80;4.30;;;9.50;99.90;;;;;;5088402;28;20194;-64
2022/02/27 03:23:35;;;;;;;4.70;4.20;;;9.60;99.90;;;;;;5083122;28;20208;-65
2022/02/27 03:26:02;;;;;;;11.63;4.60;;;9.60;99.90;;;;;;5089408;28;20205;-65
2022/02/27 03:28:29;;;;;;;6.93;4.40;;;9.60;99.90;;;;;;5086546;28;20197;-65
2022/02/27 03:30:55;;;;;;;6.97;4.53;;;9.60;99.90;;;;;;5082651;28;20198;-65
2022/02/27 03:33:22;;;;;;;7.67;4.30;;;9.60;99.90;;;;;;5089976;28;20265;-65
2022/02/27 03:35:48;;;;;;;17.83;4.63;;;9.70;99.90;;;;;;5089227;28;20217;-65
2022/02/27 03:38:15;;;;;;;5.90;4.30;;;9.70;99.90;;;;;;5088861;28;20204;-65
2022/02/27 03:40:41;;;;;;;5.87;4.43;;;9.80;99.90;;;;;;5079850;28;20287;-66
2022/02/27 03:43:08;;;;;;;10.37;4.17;;;9.80;99.90;;;;;;5082369;28;20194;-65
2022/02/27 03:45:34;;;;;;;8.73;4.17;;;9.90;99.90;;;;;;5071704;28;20190;-65
2022/02/27 03:48:01;;;;;;;9.10;4.37;;;9.90;99.90;;;;;;5089763;28;20194;-65
2022/02/27 03:50:27;;;;;;;10.03;3.93;;;9.90;99.90;;;;;;5089731;28;20205;-65
2022/02/27 03:52:53;;;;;;;6.17;3.97;;;10.00;99.90;;;;;;5090809;28;20894;-66
2022/02/27 03:55:20;;;;;;;7.50;4.23;;;10.00;99.90;;;;;;5090446;28;20530;-66
2022/02/27 03:57:47;;;;;;;7.47;3.90;;;10.00;99.90;;;;;;5090543;28;20197;-65
2022/02/27 04:00:16;;;;;;;9.73;4.13;;;10.00;99.90;;;;;;5082981;28;20190;-65
2022/02/27 04:02:46;;;;;;;13.10;4.70;;;10.00;99.90;;;;;;5084491;28;20217;-66
2022/02/27 04:05:18;;;;;;;7.80;3.90;;;10.00;99.90;;;;;;5090466;28;20183;-66
2022/02/27 04:07:45;;;;;;;6.27;4.10;;;10.00;99.90;;;;;;5086934;28;20202;-66
2022/02/27 04:10:13;;;;;;;6.77;3.93;;;10.00;99.90;;;;;;5089249;28;20197;-66
2022/02/27 04:12:39;;;;;;;6.13;4.00;;;10.00;99.90;;;;;;5084405;28;20195;-65
2022/02/27 04:15:07;;;;;;;4.60;3.30;;;10.00;99.90;;;;;;5051416;28;20207;-65
2022/02/27 04:17:34;;;;;;;8.40;3.70;;;10.00;99.90;;;;;;5069110;28;20190;-66
2022/02/27 04:20:00;;;;;;;7.97;4.53;;;10.00;99.90;;;;;;5070702;28;20191;-65
2022/02/27 04:22:27;;;;;;;11.00;4.03;;;10.00;99.90;;;;;;5083974;28;20214;-66
2022/02/27 04:24:54;;;;;;;5.70;3.73;;;10.00;99.90;;;;;;5087238;28;20501;-65
2022/02/27 04:27:20;;;;;;;9.17;3.73;;;10.00;99.90;;;;;;5088140;28;20243;-66
2022/02/27 04:29:47;;;;;;;7.80;3.67;;;10.10;99.90;;;;;;5085708;28;20194;-65
2022/02/27 04:32:13;;;;;;;8.20;3.30;;;10.10;99.90;;;;;;5084592;28;20190;-66
2022/02/27 04:34:40;;;;;;;6.77;3.53;;;10.10;99.90;;;;;;5064267;28;20647;-65
2022/02/27 04:37:06;;;;;;;8.17;3.20;;;10.10;99.90;;;;;;5082032;28;20195;-65
2022/02/27 04:39:32;;;;;;;6.97;3.40;;;10.20;99.90;;;;;;5070069;28;20187;-66
2022/02/27 04:41:59;;;;;;;9.30;3.33;;;10.20;99.90;;;;;;5079544;28;20187;-66
2022/02/27 04:44:25;;;;;;;10.03;3.47;;;10.20;99.90;;;;;;5069505;28;20190;-65
2022/02/27 04:46:51;;;;;;;6.30;3.40;;;10.20;99.90;;;;;;5083150;28;20277;-65
2022/02/27 04:49:19;;;;;;;7.33;3.03;;;10.30;99.90;;;;;;5071271;28;20606;-66
2022/02/27 04:51:45;;;;;;;6.60;3.37;;;10.20;99.90;;;;;;5081640;28;20267;-66
2022/02/27 04:54:11;;;;;;;7.33;3.30;;;10.30;99.90;;;;;;5060701;28;20234;-66
2022/02/27 04:56:38;;;;;;;9.40;3.90;;;10.30;99.90;;;;;;5067315;28;20285;-65
2022/02/27 04:59:04;;;;;;;5.50;3.40;;;10.30;99.90;;;;;;5076503;28;20244;-66
2022/02/27 05:01:31;;;;;;;6.43;3.30;;;10.30;99.90;;;;;;5073946;28;20194;-65
2022/02/27 05:03:57;;;;;;;8.33;3.30;;;10.30;99.90;;;;;;5084661;28;20710;-65
2022/02/27 05:06:24;;;;;;;10.13;3.30;;;10.30;99.90;;;;;;5082565;28;20209;-66
2022/02/27 05:08:50;;;;;;;7.63;3.30;;;10.30;99.90;;;;;;5088129;28;20336;-65
2022/02/27 05:11:16;;;;;;;12.27;3.37;;;10.30;99.90;;;;;;5079380;28;20215;-66
2022/02/27 05:13:43;;;;;;;7.40;3.57;;;10.40;99.90;;;;;;5089303;28;20202;-65
2022/02/27 05:16:09;;;;;;;5.67;2.90;;;10.30;99.90;;;;;;5068197;28;20292;-65
2022/02/27 05:18:35;;;;;;;7.87;3.47;;;10.40;99.90;;;;;;5077951;28;20658;-66
2022/02/27 05:21:02;;;;;;;5.17;3.30;;;10.40;99.90;;;;;;5088217;28;20201;-67
2022/02/27 05:23:28;;;;;;;7.03;3.40;;;10.40;99.90;;;;;;5089552;28;20261;-66
2022/02/27 05:25:58;;;;;;;5.47;3.13;;;10.40;99.90;;;;;;5086979;28;20292;-66
2022/02/27 05:28:27;;;;;;;9.97;3.40;;;10.40;99.90;;;;;;5088993;28;20190;-65
2022/02/27 05:30:55;;;;;;;4.60;2.93;;;10.40;99.90;;;;;;5087401;28;20209;-65
2022/02/27 05:33:21;;;;;;;8.87;3.30;;;10.40;99.90;;;;;;5078912;28;20351;-65
2022/02/27 05:35:48;;;;;;;8.67;3.37;;;10.40;99.90;;;;;;5088418;28;20282;-65
2022/02/27 05:38:15;;;;;;;9.10;3.40;;;10.50;99.90;;;;;;5088833;28;20209;-65
2022/02/27 05:40:41;;;;;;;4.93;2.93;;;10.50;99.90;;;;;;5087643;28;20204;-65
2022/02/27 05:43:08;;;;;;;7.23;3.30;;;10.50;99.90;;;;;;5087191;28;20194;-65
2022/02/27 05:45:35;;;;;;;13.70;3.80;;;10.50;99.90;;;;;;5088581;28;20282;-66
2022/02/27 05:48:01;;;;;;;9.03;3.40;;;10.50;99.90;;;;;;5087138;28;20202;-65
2022/02/27 05:50:27;;;;;;;8.50;3.00;;;10.50;99.90;;;;;;5087653;28;20280;-65
2022/02/27 05:52:54;;;;;;;6.33;3.30;;;10.60;99.90;;;;;;5088935;28;20293;-65
2022/02/27 05:55:20;;;;;;;7.97;3.40;;;10.60;99.90;;;;;;5085785;28;20738;-65
2022/02/27 05:57:46;;;;;;;8.17;3.40;;;10.60;99.90;;;;;;5088316;28;20278;-65
2022/02/27 06:00:13;;;;;;;10.47;2.90;;;10.60;99.90;;;;;;5089153;28;20218;-66
2022/02/27 06:02:41;;;;;;;8.07;2.97;;;10.60;99.90;;;;;;5084351;28;20201;-65
2022/02/27 06:05:08;;;;;;;5.07;2.80;;;10.60;99.90;;;;;;5077785;28;20205;-66
2022/02/27 06:07:34;;;;;;;9.77;3.00;;;10.60;99.90;;;;;;5066194;28;20192;-66
2022/02/27 06:10:01;;;;;;;9.10;2.77;;;10.60;99.90;;;;;;5080023;28;20209;-66
2022/02/27 06:12:27;;;;;;;7.43;3.20;;;10.60;99.90;;;;;;5072892;28;20190;-66
2022/02/27 06:14:53;;;;;;;8.87;3.00;;;10.70;99.90;;;;;;5085464;28;20244;-66
2022/02/27 06:17:19;;;;;;;5.93;2.80;;;10.70;99.90;;;;;;5088874;28;20287;-66
2022/02/27 06:19:46;;;;;;;10.13;2.90;;;10.70;99.90;;;;;;5070190;28;20186;-65
2022/02/27 06:22:12;;;;;;;3.13;2.63;;;10.80;99.90;;;;;;5086862;28;20174;-65
2022/02/27 06:24:38;;;;;;;9.17;3.20;;;10.80;99.90;;;;;;5086640;28;20186;-65
2022/02/27 06:27:04;;;;;;;10.37;3.10;;;10.80;99.90;;;;;;5068546;28;20202;-65
2022/02/27 06:29:31;;;;;;;8.90;2.67;;;10.90;99.90;;;;;;5080219;28;20206;-65
2022/02/27 06:31:57;;;;;;;5.80;2.80;;;10.90;99.90;;;;;;5079612;28;20194;-66
2022/02/27 06:34:23;;;;;;;7.43;2.50;;;10.90;99.90;;;;;;5072066;28;20312;-65
2022/02/27 06:36:50;;;;;;;6.17;2.50;;;10.90;99.90;;;;;;5087375;28;20198;-66
2022/02/27 06:39:16;;;;;;;11.27;2.70;;;10.90;99.90;;;;;;5090785;28;20197;-65
2022/02/27 06:41:42;;;;;;;5.47;2.60;;;11.00;99.90;;;;;;5083163;28;20511;-65
2022/02/27 06:44:08;;;;;;;10.43;2.73;;;11.00;99.90;;;;;;5082965;28;20205;-65
2022/02/27 06:46:35;;;;;;;8.30;3.17;;;11.10;99.90;;;;;;5089774;28;20205;-65
2022/02/27 06:49:01;;;;;;;8.00;2.50;;;11.00;99.90;;;;;;5090767;28;20198;-65
2022/02/27 06:51:27;;;;;;;7.20;2.67;;;11.00;99.90;;;;;;5088461;28;20194;-65
2022/02/27 06:53:54;;;;;;;8.97;2.67;;;11.10;99.90;;;;;;5070461;28;20224;-66
2022/02/27 06:56:20;;;;;;;5.90;2.50;;;11.10;99.90;;;;;;5085083;28;20222;-66
2022/02/27 06:58:47;;;;;;;9.97;2.73;;;11.10;99.90;;;;;;5091767;28;20627;-66
2022/02/27 07:01:18;;;;;;;12.07;2.30;;;11.20;99.90;;;;;;5090534;28;20243;-66
2022/02/27 07:03:44;;;;;;;9.83;2.80;;;11.20;99.90;;;;;;5091169;28;20196;-65
2022/02/27 07:06:11;;;;;;;6.00;2.47;;;11.20;99.90;;;;;;5081406;28;20209;-65
2022/02/27 07:08:37;;;;;;;5.97;2.40;;;11.20;99.90;;;;;;5091381;28;20193;-65
2022/02/27 07:11:03;;;;;;;3.47;1.90;;;11.20;99.90;;;;;;5089564;28;20854;-66
2022/02/27 07:13:33;;;;;;;8.40;2.47;;;11.20;99.90;;;;;;5091110;28;20223;-66
2022/02/27 07:15:59;;;;;;;6.97;2.47;;;11.30;99.90;;;;;;5091556;28;20187;-66
2022/02/27 07:18:26;;;;;;;6.50;2.17;;;11.30;99.90;;;;;;5090998;28;20175;-65
2022/02/27 07:20:52;;;;;;;8.10;2.30;;;11.30;99.90;;;;;;5073072;28;20791;-65
2022/02/27 07:23:19;;;;;;;5.57;2.43;;;11.30;99.90;;;;;;5088698;28;20189;-65
2022/02/27 07:25:45;;;;;;;5.87;2.27;;;11.30;99.90;;;;;;5069925;28;20195;-66
2022/02/27 07:28:14;;;;;;;7.47;2.60;;;11.40;99.90;;;;;;5072134;28;20186;-65
2022/02/27 07:30:40;;;;;;;5.47;2.90;;;11.40;99.90;;;;;;5091328;28;20197;-65
2022/02/27 07:33:07;;;;;;;6.73;2.27;;;11.40;99.90;;;;;;5091549;28;20218;-65
2022/02/27 07:35:33;;;;;;;4.47;2.33;;;11.50;99.90;;;;;;5088397;28;20230;-65
2022/02/27 07:37:59;;;;;;;4.83;2.20;;;11.50;99.90;;;;;;5086016;28;20178;-65
2022/02/27 07:40:26;;;;;;;10.53;2.50;;;11.60;99.90;;;;;;5091844;28;20185;-65
2022/02/27 07:42:53;;;;;;;8.23;2.33;;;11.70;99.90;;;;;;5069254;28;20586;-65
2022/02/27 07:45:20;;;;;;;8.73;2.40;;;11.70;99.90;;;;;;5088528;28;20213;-65
2022/02/27 07:47:47;;;;;;;7.50;2.37;;;11.70;99.90;;;;;;5072992;28;20530;-65
2022/02/27 07:50:14;;;;;;;6.40;2.33;;;11.80;99.90;;;;;;5090274;28;20911;-66
2022/02/27 07:52:40;;;;;;;6.00;2.50;;;11.90;99.90;;;;;;5089619;28;20269;-66
2022/02/27 07:55:08;;;;;;;6.70;2.10;;;11.90;99.90;;;;;;5071955;28;20586;-66
2022/02/27 07:57:34;;;;;;;3.53;1.97;;;11.90;99.90;;;;;;5088782;28;20197;-65
2022/02/27 08:00:01;;;;;;;5.43;2.03;;;11.90;99.90;;;;;;5089649;28;20213;-66
2022/02/27 08:02:27;;;;;;;4.17;2.10;;;12.00;99.90;;;;;;5071713;28;20269;-66
2022/02/27 08:04:53;;;;;;;8.57;1.90;;;12.00;99.90;;;;;;5086645;28;20225;-65
2022/02/27 08:07:20;;;;;;;13.13;1.83;;;12.10;99.90;;;;;;5076382;28;20229;-67
2022/02/27 08:09:46;;;;;;;6.70;2.27;;;12.10;99.90;;;;;;5085815;28;20209;-65
2022/02/27 08:12:12;;;;;;;8.27;2.00;;;12.10;99.90;;;;;;5071079;28;20195;-65
2022/02/27 08:14:39;;;;;;;4.63;2.03;;;12.20;99.90;;;;;;5083757;28;20523;-65
2022/02/27 08:17:05;;;;;;;6.10;2.30;;;12.20;99.90;;;;;;5063961;28;20183;-66
2022/02/27 08:19:32;;;;;;;7.90;2.20;;;12.30;99.90;;;;;;5070777;28;20306;-66
2022/02/27 08:22:01;;;;;;;5.60;2.10;;;12.30;99.90;;;;;;5076834;28;20188;-66
2022/02/27 08:24:27;;;;;;;7.67;2.00;;;12.40;99.90;;;;;;5088798;28;20198;-65
2022/02/27 08:26:53;;;;;;;4.13;1.93;;;12.40;99.90;;;;;;5089464;28;20197;-66
2022/02/27 08:29:20;;;;;;;7.63;2.53;;;12.40;99.90;;;;;;5088602;28;20212;-66
2022/02/27 08:31:47;;;;;;;11.13;2.20;;;12.50;99.90;;;;;;5066837;28;20190;-65
2022/02/27 08:34:14;;;;;;;5.83;1.87;;;12.50;99.90;;;;;;5085990;28;20411;-64
2022/02/27 08:36:40;;;;;;;6.93;2.20;;;12.60;99.90;;;;;;5085436;28;20190;-65
2022/02/27 08:39:09;;;;;;;7.47;2.10;;;12.60;99.90;;;;;;5081629;28;20182;-64
2022/02/27 08:41:39;;;;;;;4.57;1.80;;;12.70;99.90;;;;;;5087024;28;20192;-65
2022/02/27 08:44:06;;;;;;;3.40;1.80;;;12.70;99.90;;;;;;5077689;28;20191;-65
2022/02/27 08:46:33;;;;;;;4.50;1.83;;;12.80;99.90;;;;;;5087574;28;20319;-64
2022/02/27 08:48:59;;;;;;;5.20;1.87;;;12.80;99.90;;;;;;5083896;28;20297;-65
2022/02/27 08:51:26;;;;;;;4.40;1.80;;;12.80;99.90;;;;;;5096637;28;20218;-64
2022/02/27 08:53:53;;;;;;;4.97;1.70;;;12.80;99.90;;;;;;5078372;28;20261;-65
2022/02/27 08:56:19;;;;;;;6.50;2.00;;;12.80;99.90;;;;;;5080962;28;20271;-64
2022/02/27 08:58:46;;;;;;;9.90;2.50;;;12.80;99.90;;;;;;5075439;28;20182;-64
2022/02/27 09:01:13;;;;;;;4.23;1.73;;;12.80;99.90;;;;;;5084012;28;20183;-64
2022/02/27 09:03:40;;;;;;;7.73;2.03;;;12.80;99.90;;;;;;5086560;28;20570;-65
2022/02/27 09:06:09;;;;;;;6.10;1.77;;;12.80;99.90;;;;;;5081666;28;20198;-66
2022/02/27 09:08:37;;;;;;;4.70;2.37;;;12.80;99.90;;;;;;5074451;28;20918;-64
2022/02/27 09:11:04;;;;;;;5.00;2.03;;;12.80;99.90;;;;;;5080995;28;20183;-64
2022/02/27 09:13:31;;;;;;;10.00;2.10;;;12.70;99.90;;;;;;5081967;28;20209;-64
2022/02/27 09:15:57;;;;;;;7.60;2.10;;;12.80;99.90;;;;;;5084059;28;20199;-64
2022/02/27 09:18:24;;;;;;;9.37;2.53;;;12.70;99.90;;;;;;5080488;28;20194;-65
2022/02/27 09:20:50;;;;;;;4.33;1.90;;;12.70;99.90;;;;;;5069641;28;20186;-64
2022/02/27 09:23:17;;;;;;;7.57;2.20;;;12.70;99.90;;;;;;5080132;28;20178;-64
2022/02/27 09:25:43;;;;;;;5.47;2.30;;;12.70;99.90;;;;;;5086223;28;20273;-64
2022/02/27 09:28:09;;;;;;;4.60;1.90;;;12.70;99.90;;;;;;5078129;28;20190;-63
2022/02/27 09:30:36;;;;;;;7.03;2.10;;;12.70;99.90;;;;;;5068376;28;20205;-64
2022/02/27 09:33:03;;;;;;;9.53;2.27;;;12.70;99.90;;;;;;5084052;28;20272;-64
2022/02/27 09:35:29;;;;;;;5.97;3.00;;;12.70;99.90;;;;;;5065292;28;20210;-64
2022/02/27 09:37:58;;;;;;;5.07;1.83;;;12.70;99.90;;;;;;5085047;28;20193;-64
2022/02/27 09:40:27;;;;;;;8.60;1.70;;;12.70;99.90;;;;;;5075291;28;20186;-64
2022/02/27 09:42:54;;;;;;;4.53;1.70;;;12.60;99.90;;;;;;5079209;28;21560;-64
2022/02/27 09:45:23;;;;;;;5.17;1.90;;;12.60;99.90;;;;;;5073198;28;20190;-64
2022/02/27 09:47:55;;;;;;;6.77;1.90;;;12.60;99.90;;;;;;5085224;28;20187;-64
2022/02/27 09:50:23;;;;;;;7.23;2.07;;;12.60;99.90;;;;;;5078471;28;20197;-64
2022/02/27 09:52:50;;;;;;;4.10;1.90;;;12.60;99.90;;;;;;5077182;28;20187;-64
2022/02/27 09:55:18;;;;;;;10.27;2.20;;;12.60;99.90;;;;;;5080440;28;20240;-64
2022/02/27 09:57:46;;;;;;;5.87;2.20;;;12.60;99.90;;;;;;5077837;28;20183;-64
2022/02/27 10:00:17;;;;;;;5.30;1.93;;;12.60;99.90;;;;;;5078263;28;20539;-65
2022/02/27 10:03:26;;;;;;;7.13;2.40;;;12.60;99.90;;;;;;5083434;28;20263;-64
2022/02/27 10:06:09;;;;;;;5.67;2.20;;;12.60;99.90;;;;;;5030821;28;20273;-64
2022/02/27 10:08:56;;;;;;;7.50;1.90;;;12.60;99.90;;;;;;5038151;28;20217;-63
2022/02/27 10:11:23;;;;;;;5.43;1.70;;;12.60;99.90;;;;;;5061260;28;20213;-64
2022/02/27 10:13:56;;;;;;;4.70;1.73;;;12.60;99.90;;;;;;5082123;28;20186;-65
2022/02/27 10:16:26;;;;;;;5.37;2.00;;;12.60;99.90;;;;;;5081481;28;20182;-65
2022/02/27 10:18:58;;;;;;;4.97;1.90;;;12.60;99.90;;;;;;5081464;28;20662;-64
2022/02/27 10:21:36;;;;;;;7.93;1.70;;;12.60;99.90;;;;;;5085199;28;20641;-64
2022/02/27 10:24:10;;;;;;;2.63;1.60;;;12.60;99.90;;;;;;5081118;28;20183;-64
2022/02/27 10:26:40;;;;;;;8.03;2.23;;;12.70;99.90;;;;;;5083241;28;20187;-65
2022/02/27 10:29:22;;;;;;;9.27;2.33;;;12.70;99.90;;;;;;5081185;28;20190;-64
2022/02/27 10:31:58;;;;;;;6.07;2.40;;;12.70;99.90;;;;;;5084586;28;20327;-64
2022/02/27 10:34:29;;;;;;;3.73;2.20;;;12.70;99.90;;;;;;5081241;28;20201;-64
2022/02/27 10:37:16;;;;;;;4.10;1.77;;;12.80;99.90;;;;;;5077219;28;20534;-63
2022/02/27 10:39:52;;;;;;;5.53;1.63;;;12.80;99.90;;;;;;5068310;28;20192;-64
2022/02/27 10:42:32;;;;;;;3.60;1.70;;;12.80;99.90;;;;;;5079140;28;22074;-65
2022/02/27 10:45:02;;;;;;;9.50;1.97;;;12.80;99.90;;;;;;5080389;28;20202;-65
2022/02/27 10:47:36;;;;;;;7.23;1.70;;;12.90;99.90;;;;;;5084295;28;20186;-65
2022/02/27 10:50:16;;;;;;;5.10;1.80;;;12.90;99.90;;;;;;5077925;28;20831;-65
2022/02/27 10:52:48;;;;;;;5.03;1.43;;;12.90;99.90;;;;;;5082614;28;20190;-64
2022/02/27 10:55:16;;;;;;;7.67;1.80;;;12.90;99.90;;;;;;5087800;28;20246;-64
2022/02/27 10:57:50;;;;;;;3.93;1.60;;;12.90;99.90;;;;;;5088517;28;20186;-64
2022/02/27 11:00:30;;;;;;;2.93;1.60;;;12.90;99.90;;;;;;5083923;28;20272;-64
2022/02/27 11:02:59;;;;;;;7.30;2.00;;;12.90;99.90;;;;;;5083776;28;20884;-64
2022/02/27 11:05:28;;;;;;;4.23;2.00;;;12.90;99.90;;;;;;5090254;28;20194;-65
2022/02/27 11:07:58;;;;;;;6.90;2.20;;;12.90;99.90;;;;;;5081180;28;20195;-65
2022/02/27 11:10:36;;;;;;;3.63;1.87;;;13.00;99.90;;;;;;5075927;28;20197;-65
2022/02/27 11:13:07;;;;;;;3.57;1.70;;;13.00;99.90;;;;;;5076829;28;20182;-65
2022/02/27 11:15:34;;;;;;;4.93;1.70;;;13.00;99.90;;;;;;5082976;28;20669;-65
2022/02/27 11:18:00;;;;;;;5.40;1.73;;;13.10;99.90;;;;;;5078729;28;20214;-64
2022/02/27 11:20:27;;;;;;;7.90;2.17;;;13.10;99.90;;;;;;5082599;28;20182;-63
2022/02/27 11:22:56;;;;;;;7.33;1.93;;;13.10;99.90;;;;;;5064080;28;20182;-64
2022/02/27 11:25:26;;;;;;;4.30;1.60;;;13.10;99.90;;;;;;5078556;28;20225;-65
2022/02/27 11:28:01;;;;;;;5.37;2.07;;;13.20;99.90;;;;;;5077819;28;20190;-64
2022/02/27 11:30:32;;;;;;;4.30;2.20;;;13.30;99.90;;;;;;5069915;28;20193;-63
2022/02/27 11:33:05;;;;;;;7.47;2.30;;;13.30;99.90;;;;;;5086501;28;20553;-64
2022/02/27 11:35:57;;;;;;;5.03;1.90;;;13.30;99.90;;;;;;5082776;28;20202;-64
2022/02/27 11:38:33;;;;;;;5.27;2.40;;;13.40;99.90;;;;;;5083123;28;20202;-65
2022/02/27 11:41:19;;;;;;;5.00;2.20;;;13.30;99.90;;;;;;5085442;28;20251;-65
2022/02/27 11:43:57;;;;;;;5.67;2.87;;;13.30;99.90;;;;;;5084299;28;20343;-65
2022/02/27 11:46:41;;;;;;;6.63;2.40;;;13.30;99.90;;;;;;5066901;28;20182;-64
2022/02/27 11:49:19;;;;;;;5.73;2.17;;;13.30;99.90;;;;;;5085540;28;20190;-65
2022/02/27 11:51:49;;;;;;;10.70;2.73;;;13.20;99.90;;;;;;5081292;28;20196;-64
2022/02/27 11:54:23;;;;;;;6.63;2.77;;;13.20;99.90;;;;;;5086340;28;20206;-64
2022/02/27 11:56:58;;;;;;;7.03;2.27;;;13.20;99.90;;;;;;5076387;28;20194;-64
2022/02/27 11:59:47;;;;;;;10.50;1.90;;;13.20;99.90;;;;;;5089154;28;20548;-64
2022/02/27 12:02:38;;;;;;;11.07;2.03;;;13.20;99.90;;;;;;5086238;28;20531;-65
2022/02/27 12:05:18;;;;;;;4.03;1.63;;;13.20;99.90;;;;;;5071005;28;20274;-65
2022/02/27 12:08:08;;;;;;;7.17;2.10;;;13.20;99.90;;;;;;5079582;28;20182;-64
2022/02/27 12:10:50;;;;;;;5.90;1.90;;;13.20;99.90;;;;;;5085654;28;20188;-65
2022/02/27 12:13:30;;;;;;;4.20;2.37;;;13.20;99.90;;;;;;5083238;28;20208;-65
2022/02/27 12:16:10;;;;;;;9.40;2.63;;;13.20;99.90;;;;;;5075942;28;20649;-65
2022/02/27 12:18:52;;;;;;;4.13;2.20;;;13.20;99.90;;;;;;5080922;28;20908;-65
2022/02/27 12:21:35;;;;;;;6.47;2.40;;;13.20;99.90;;;;;;5085279;28;20500;-65
2022/02/27 12:24:29;;;;;;;4.57;2.23;;;13.20;99.90;;;;;;5079067;28;20181;-66
2022/02/27 12:27:04;;;;;;;4.17;1.90;;;13.20;99.90;;;;;;5078824;28;20286;-65
2022/02/27 12:29:37;;;;;;;3.97;1.67;;;13.20;99.90;;;;;;5080776;28;20265;-64
2022/02/27 12:32:22;;;;;;;3.87;1.83;;;13.20;99.90;;;;;;5083399;28;20984;-65
2022/02/27 12:34:55;;;;;;;5.87;1.83;;;13.20;99.90;;;;;;5080201;28;20896;-65
2022/02/27 12:37:23;;;;;;;4.70;1.40;;;13.20;99.90;;;;;;5081177;28;20273;-64
2022/02/27 12:39:53;;;;;;;6.00;1.57;;;13.20;99.90;;;;;;5084293;28;20186;-64
2022/02/27 12:42:23;;;;;;;8.33;1.60;;;13.20;99.90;;;;;;5086342;28;20224;-64
2022/02/27 12:44:55;;;;;;;4.53;1.47;;;13.20;99.90;;;;;;5077424;28;20575;-64
2022/02/27 12:47:25;;;;;;;5.87;1.80;;;13.20;99.90;;;;;;5080693;28;20857;-64
2022/02/27 12:50:13;;;;;;;3.33;1.77;;;13.30;99.90;;;;;;5081118;28;20231;-65
2022/02/27 12:52:40;;;;;;;8.00;1.43;;;13.30;99.90;;;;;;5080024;28;20304;-64